Time;durP1;ratioP1;P1;durP2;ratioP2;P2;SDS_P1;SDS_P2;PMS_P1;PMS_P2;Temp;Humidity;BMP_temperature;BMP_pressure;BME280_temperature;BME280_humidity;BME280_pressure;Samples;Min_cycle;Max_cycle;Signal;HPM_P1;HPM_P2
2021/09/19 00:01:54;;;;;;;59.50;3.63;;;12.20;1.00;;;;;;5032001;28;20492;-71
2021/09/19 00:04:21;;;;;;;58.93;3.73;;;12.20;1.00;;;;;;5031982;28;20480;-71
2021/09/19 00:06:49;;;;;;;59.10;3.03;;;12.20;1.00;;;;;;5031506;28;20548;-71
2021/09/19 00:09:16;;;;;;;58.67;2.90;;;12.10;1.00;;;;;;5031837;28;20452;-71
2021/09/19 00:11:44;;;;;;;58.90;2.90;;;12.10;1.00;;;;;;5031390;28;20503;-71
2021/09/19 00:14:11;;;;;;;58.67;3.27;;;12.10;1.00;;;;;;5027958;28;20513;-71
2021/09/19 00:16:38;;;;;;;58.80;3.47;;;12.10;1.00;;;;;;5031218;28;20556;-71
2021/09/19 00:19:05;;;;;;;58.80;3.20;;;12.00;1.00;;;;;;5032141;28;20448;-71
2021/09/19 00:21:32;;;;;;;60.33;3.30;;;12.00;1.00;;;;;;5031584;28;20484;-71
2021/09/19 00:24:00;;;;;;;59.97;3.73;;;12.00;1.00;;;;;;5031138;28;20536;-71
2021/09/19 00:26:27;;;;;;;58.53;2.80;;;12.00;1.00;;;;;;5031047;28;20477;-71
2021/09/19 00:28:54;;;;;;;58.43;2.73;;;12.00;1.00;;;;;;5031588;28;20465;-71
2021/09/19 00:31:21;;;;;;;58.60;2.90;;;12.00;1.00;;;;;;5031658;28;20488;-71
2021/09/19 00:33:47;;;;;;;59.20;4.03;;;12.00;1.00;;;;;;5031555;28;20539;-71
2021/09/19 00:36:14;;;;;;;58.37;2.90;;;11.90;1.00;;;;;;5031115;28;20447;-71
2021/09/19 00:38:41;;;;;;;58.97;3.20;;;11.90;1.00;;;;;;5031429;28;20460;-71
2021/09/19 00:41:09;;;;;;;58.23;2.90;;;11.90;1.00;;;;;;5031228;28;20528;-71
2021/09/19 00:43:36;;;;;;;58.60;3.00;;;11.90;1.00;;;;;;5027542;28;20941;-71
2021/09/19 00:46:03;;;;;;;60.13;4.73;;;11.90;1.00;;;;;;5030544;28;20522;-71
2021/09/19 00:48:30;;;;;;;58.67;2.83;;;11.80;1.00;;;;;;5031282;28;21036;-71
2021/09/19 00:50:57;;;;;;;58.97;3.40;;;11.80;1.00;;;;;;5031361;28;20569;-71
2021/09/19 00:53:24;;;;;;;58.57;3.10;;;11.80;1.00;;;;;;5031371;28;20480;-71
2021/09/19 00:55:52;;;;;;;58.70;3.10;;;11.80;1.00;;;;;;5030916;28;20647;-71
2021/09/19 00:58:20;;;;;;;58.63;3.00;;;11.80;1.00;;;;;;5031485;28;20836;-71
2021/09/19 01:00:49;;;;;;;58.37;3.00;;;11.80;1.00;;;;;;5031189;28;20445;-71
2021/09/19 01:03:17;;;;;;;58.63;3.30;;;11.80;1.00;;;;;;5031267;28;20459;-71
2021/09/19 01:05:45;;;;;;;58.77;2.93;;;11.70;1.00;;;;;;5030957;28;20453;-71
2021/09/19 01:08:15;;;;;;;58.77;3.10;;;11.70;1.00;;;;;;5021470;28;20548;-71
2021/09/19 01:10:42;;;;;;;61.10;3.73;;;11.70;1.00;;;;;;5011349;28;21017;-71
2021/09/19 01:13:10;;;;;;;58.80;3.10;;;11.70;1.00;;;;;;5011544;28;20874;-71
2021/09/19 01:15:41;;;;;;;58.67;3.20;;;11.60;1.00;;;;;;5012058;28;20452;-71
2021/09/19 01:18:08;;;;;;;59.67;4.50;;;11.60;1.00;;;;;;5030906;28;20576;-71
2021/09/19 01:20:36;;;;;;;58.53;2.90;;;11.60;1.00;;;;;;5031094;28;20451;-71
2021/09/19 01:23:08;;;;;;;58.77;2.83;;;11.60;1.00;;;;;;5031279;28;20448;-71
2021/09/19 01:25:37;;;;;;;58.47;2.90;;;11.50;1.00;;;;;;5030773;28;20456;-71
2021/09/19 01:28:05;;;;;;;58.67;2.83;;;11.50;1.00;;;;;;5030914;28;20471;-71
2021/09/19 01:30:33;;;;;;;58.43;2.90;;;11.50;1.00;;;;;;5030839;28;20543;-71
2021/09/19 01:33:00;;;;;;;59.07;3.13;;;11.40;1.00;;;;;;5031019;28;20451;-71
2021/09/19 01:35:27;;;;;;;59.20;3.83;;;11.40;1.00;;;;;;5031415;28;20449;-71
2021/09/19 01:37:56;;;;;;;59.40;3.70;;;11.40;1.00;;;;;;5034425;28;20559;-71
2021/09/19 01:40:23;;;;;;;58.57;3.10;;;11.40;1.00;;;;;;5034514;28;20448;-71
2021/09/19 01:42:51;;;;;;;58.77;3.07;;;11.40;1.00;;;;;;5034371;28;20453;-71
2021/09/19 01:45:19;;;;;;;58.47;2.83;;;11.40;1.00;;;;;;5034346;28;20483;-71
2021/09/19 01:47:45;;;;;;;58.73;3.10;;;11.30;1.00;;;;;;5030087;28;20476;-71
2021/09/19 01:50:13;;;;;;;58.47;2.70;;;11.30;1.00;;;;;;5034206;28;20455;-71
2021/09/19 01:52:40;;;;;;;58.57;3.30;;;11.30;1.00;;;;;;5034175;28;20485;-71
2021/09/19 01:55:08;;;;;;;58.33;2.73;;;11.30;1.00;;;;;;5034190;28;20540;-71
2021/09/19 01:57:35;;;;;;;58.63;2.90;;;11.30;1.00;;;;;;5033532;28;20469;-71
2021/09/19 02:00:06;;;;;;;58.47;2.70;;;11.30;1.00;;;;;;5034307;28;20549;-71
2021/09/19 02:02:34;;;;;;;58.87;3.00;;;11.30;1.00;;;;;;5034212;28;20448;-71
2021/09/19 02:05:02;;;;;;;58.73;2.90;;;11.30;1.00;;;;;;5033884;28;20451;-71
2021/09/19 02:07:29;;;;;;;58.70;3.10;;;11.30;1.00;;;;;;5033565;28;20473;-71
2021/09/19 02:09:56;;;;;;;58.70;2.90;;;11.20;1.00;;;;;;5033799;28;20531;-71
2021/09/19 02:12:23;;;;;;;59.17;3.17;;;11.20;1.00;;;;;;5034123;28;20851;-71
2021/09/19 02:14:49;;;;;;;58.73;3.20;;;11.10;1.00;;;;;;5034169;28;20564;-71
2021/09/19 02:17:18;;;;;;;58.57;3.10;;;11.10;1.00;;;;;;5033352;28;20465;-71
2021/09/19 02:19:44;;;;;;;58.47;2.80;;;11.10;1.00;;;;;;5029918;28;21036;-71
2021/09/19 02:22:13;;;;;;;58.77;3.30;;;11.10;1.00;;;;;;5033783;28;20849;-71
2021/09/19 02:24:40;;;;;;;58.70;3.00;;;11.10;1.00;;;;;;5034205;28;20487;-71
2021/09/19 02:27:07;;;;;;;58.60;2.80;;;11.10;1.00;;;;;;5033496;28;20465;-71
2021/09/19 02:29:34;;;;;;;58.67;2.80;;;11.00;1.00;;;;;;5033419;28;20548;-71
2021/09/19 02:32:01;;;;;;;58.90;3.20;;;11.00;1.00;;;;;;5033535;28;20487;-71
2021/09/19 02:34:29;;;;;;;58.67;3.00;;;11.00;1.00;;;;;;5033593;28;20481;-71
2021/09/19 02:36:56;;;;;;;58.70;3.30;;;11.00;1.00;;;;;;5032943;28;21000;-71
2021/09/19 02:39:23;;;;;;;58.60;3.13;;;11.00;1.00;;;;;;5033220;28;20818;-71
2021/09/19 02:41:50;;;;;;;58.90;3.40;;;11.00;1.00;;;;;;5033467;28;20535;-71
2021/09/19 02:44:17;;;;;;;58.67;3.10;;;11.00;1.00;;;;;;5033393;28;20531;-71
2021/09/19 02:46:44;;;;;;;58.67;2.90;;;10.90;1.00;;;;;;5032573;28;20551;-71
2021/09/19 02:49:11;;;;;;;58.50;2.90;;;10.90;1.00;;;;;;5033221;28;20861;-71
2021/09/19 02:51:39;;;;;;;58.43;2.73;;;10.90;1.00;;;;;;5028433;28;20480;-71
2021/09/19 02:54:06;;;;;;;58.57;2.77;;;10.80;1.00;;;;;;5033277;28;20449;-71
2021/09/19 02:56:33;;;;;;;58.57;2.90;;;10.80;1.00;;;;;;5032709;28;20504;-71
2021/09/19 02:58:59;;;;;;;58.73;3.00;;;10.80;1.00;;;;;;5032962;28;21035;-71
2021/09/19 03:01:26;;;;;;;58.67;3.00;;;10.80;1.00;;;;;;5033009;28;20487;-71
2021/09/19 03:03:53;;;;;;;58.77;3.17;;;10.80;1.00;;;;;;5032851;28;20453;-71
2021/09/19 03:06:21;;;;;;;59.40;3.93;;;10.80;1.00;;;;;;5032293;28;20456;-71
2021/09/19 03:08:50;;;;;;;58.70;3.27;;;10.80;1.00;;;;;;5032833;28;20456;-71
2021/09/19 03:11:17;;;;;;;58.43;3.00;;;10.70;1.00;;;;;;5032624;28;20564;-71
2021/09/19 03:13:45;;;;;;;58.27;2.90;;;10.70;1.00;;;;;;5032790;28;20452;-71
2021/09/19 03:16:12;;;;;;;58.60;3.10;;;10.70;1.00;;;;;;5032234;28;20444;-71
2021/09/19 03:18:39;;;;;;;58.27;2.70;;;10.70;1.00;;;;;;5032430;28;20540;-71
2021/09/19 03:21:06;;;;;;;58.77;3.27;;;10.70;1.00;;;;;;5032797;28;20445;-71
2021/09/19 03:23:33;;;;;;;59.27;3.33;;;10.60;1.00;;;;;;5028974;28;20456;-71
2021/09/19 03:26:01;;;;;;;58.73;3.20;;;10.60;1.00;;;;;;5032275;28;20481;-71
2021/09/19 03:28:28;;;;;;;58.47;2.87;;;10.60;1.00;;;;;;5032251;28;20485;-71
2021/09/19 03:30:55;;;;;;;59.33;2.90;;;10.60;1.00;;;;;;5032437;28;20449;-71
2021/09/19 03:33:21;;;;;;;58.77;3.07;;;10.50;1.00;;;;;;5032196;28;20882;-71
2021/09/19 03:35:48;;;;;;;58.73;2.97;;;10.50;1.00;;;;;;5031928;28;20448;-71
2021/09/19 03:38:15;;;;;;;58.57;3.00;;;10.50;1.00;;;;;;5032150;28;20492;-71
2021/09/19 03:40:43;;;;;;;58.60;3.00;;;10.40;1.00;;;;;;5032287;28;20452;-71
2021/09/19 03:43:11;;;;;;;58.60;3.00;;;10.40;1.00;;;;;;5032231;28;20447;-71
2021/09/19 03:45:38;;;;;;;58.53;2.80;;;10.30;1.00;;;;;;5031904;28;20547;-71
2021/09/19 03:48:06;;;;;;;58.47;2.70;;;10.30;1.00;;;;;;5031786;28;20465;-71
2021/09/19 03:50:33;;;;;;;58.97;3.30;;;10.30;1.00;;;;;;5032183;28;20443;-71
2021/09/19 03:53:00;;;;;;;58.87;3.30;;;10.30;1.00;;;;;;5031717;28;20571;-71
2021/09/19 03:55:28;;;;;;;61.63;3.80;;;10.30;1.00;;;;;;5027635;28;20550;-71
2021/09/19 03:57:55;;;;;;;58.37;2.80;;;10.40;1.00;;;;;;5031421;28;20550;-71
2021/09/19 04:00:23;;;;;;;58.33;2.87;;;10.30;1.00;;;;;;5031605;28;20462;-71
2021/09/19 04:02:50;;;;;;;58.80;2.70;;;10.40;1.00;;;;;;5032125;28;20815;-71
2021/09/19 04:05:16;;;;;;;58.27;2.70;;;10.30;1.00;;;;;;5031770;28;20962;-71
2021/09/19 04:07:43;;;;;;;58.57;2.57;;;10.30;1.00;;;;;;5031596;28;20467;-71
2021/09/19 04:10:12;;;;;;;58.33;2.70;;;10.30;1.00;;;;;;5031885;28;20448;-71
2021/09/19 04:12:40;;;;;;;58.53;3.10;;;10.30;1.00;;;;;;5031736;28;20526;-71
2021/09/19 04:15:08;;;;;;;58.77;2.93;;;10.30;1.00;;;;;;5031531;28;20840;-71
2021/09/19 04:17:36;;;;;;;58.47;2.80;;;10.30;1.00;;;;;;5031367;28;20771;-71
2021/09/19 04:20:05;;;;;;;58.77;2.70;;;10.20;1.00;;;;;;5031564;28;20543;-71
2021/09/19 04:22:31;;;;;;;58.57;3.00;;;10.20;1.00;;;;;;5031604;28;20539;-71
2021/09/19 04:24:59;;;;;;;58.43;2.80;;;10.20;1.00;;;;;;5031837;28;20542;-71
2021/09/19 04:27:26;;;;;;;58.67;2.60;;;10.20;1.00;;;;;;5028079;28;20476;-71
2021/09/19 04:29:53;;;;;;;58.60;2.67;;;10.10;1.00;;;;;;5031530;28;20485;-71
2021/09/19 04:32:21;;;;;;;58.47;2.70;;;10.10;1.00;;;;;;5031529;28;20590;-71
2021/09/19 04:34:49;;;;;;;58.67;3.00;;;10.10;1.00;;;;;;5031776;28;20452;-71
2021/09/19 04:37:16;;;;;;;58.40;2.80;;;10.00;1.00;;;;;;5030980;28;20511;-71
2021/09/19 04:39:43;;;;;;;58.77;3.10;;;10.00;1.00;;;;;;5031526;28;20940;-71
2021/09/19 04:42:13;;;;;;;58.63;2.80;;;10.00;1.00;;;;;;5031304;28;20528;-71
2021/09/19 04:44:41;;;;;;;58.67;2.83;;;10.00;1.00;;;;;;5031641;28;20459;-71
2021/09/19 04:47:08;;;;;;;58.37;2.90;;;10.00;1.00;;;;;;5031001;28;20563;-71
2021/09/19 04:49:35;;;;;;;58.43;2.80;;;10.00;1.00;;;;;;5030562;28;21003;-71
2021/09/19 04:52:04;;;;;;;58.50;2.83;;;10.00;1.00;;;;;;5031437;28;20505;-71
2021/09/19 04:54:31;;;;;;;58.47;2.97;;;10.00;1.00;;;;;;5031356;28;20528;-71
2021/09/19 04:56:58;;;;;;;58.80;3.60;;;10.00;1.00;;;;;;5027634;28;20591;-71
2021/09/19 04:59:25;;;;;;;58.90;3.37;;;9.90;1.00;;;;;;5013208;28;20889;-71
2021/09/19 05:01:52;;;;;;;58.37;2.87;;;9.90;1.00;;;;;;5011418;28;20450;-70
2021/09/19 05:04:18;;;;;;;58.90;3.37;;;9.90;1.00;;;;;;5011773;28;20539;-70
2021/09/19 05:06:46;;;;;;;61.00;4.30;;;9.90;1.00;;;;;;5010923;28;20478;-71
2021/09/19 05:09:14;;;;;;;58.47;3.07;;;9.90;1.00;;;;;;5011601;28;20449;-71
2021/09/19 05:11:41;;;;;;;58.57;2.90;;;9.80;1.00;;;;;;5015438;28;20449;-71
2021/09/19 05:14:08;;;;;;;58.70;2.80;;;9.80;1.00;;;;;;5015445;28;20457;-71
2021/09/19 05:16:35;;;;;;;58.50;3.00;;;9.80;1.00;;;;;;5015009;28;20515;-71
2021/09/19 05:19:02;;;;;;;58.27;2.70;;;9.70;1.00;;;;;;5015202;28;20458;-71
2021/09/19 05:21:29;;;;;;;58.67;3.30;;;9.70;1.00;;;;;;5015135;28;20456;-70
2021/09/19 05:23:56;;;;;;;58.27;2.70;;;9.80;1.00;;;;;;5014982;28;20459;-71
2021/09/19 05:26:24;;;;;;;58.27;2.70;;;9.70;1.00;;;;;;5014852;28;20453;-71
2021/09/19 05:28:51;;;;;;;58.40;2.80;;;9.70;1.00;;;;;;5016863;28;20835;-71
2021/09/19 05:31:18;;;;;;;58.37;2.80;;;9.70;1.00;;;;;;5015053;28;20535;-71
2021/09/19 05:33:46;;;;;;;58.47;2.90;;;9.60;1.00;;;;;;5014915;28;20579;-71
2021/09/19 05:36:13;;;;;;;59.50;3.77;;;9.60;1.00;;;;;;5014317;28;20457;-71
2021/09/19 05:38:40;;;;;;;58.33;2.77;;;9.70;1.00;;;;;;5014991;28;20449;-71
2021/09/19 05:41:07;;;;;;;59.50;3.00;;;9.70;1.00;;;;;;5014954;28;20531;-71
2021/09/19 05:43:36;;;;;;;59.13;3.17;;;9.70;1.00;;;;;;5014842;28;20527;-71
2021/09/19 05:46:02;;;;;;;58.33;3.00;;;9.70;1.00;;;;;;5014350;28;20539;-71
2021/09/19 05:48:29;;;;;;;58.47;2.80;;;9.70;1.00;;;;;;5014553;28;20553;-71
2021/09/19 05:50:56;;;;;;;58.70;3.50;;;9.70;1.00;;;;;;5014418;28;20449;-71
2021/09/19 05:53:23;;;;;;;58.57;3.20;;;9.80;1.00;;;;;;5014637;28;20524;-71
2021/09/19 05:55:50;;;;;;;58.80;3.00;;;9.80;1.00;;;;;;5014354;28;20486;-71
2021/09/19 05:58:17;;;;;;;58.57;2.87;;;9.80;1.00;;;;;;5014359;28;20569;-71
2021/09/19 06:00:45;;;;;;;58.60;3.20;;;9.80;1.00;;;;;;5023764;28;20843;-71
2021/09/19 06:03:12;;;;;;;58.80;2.90;;;9.90;1.00;;;;;;5033928;28;20452;-71
2021/09/19 06:05:39;;;;;;;58.60;2.87;;;10.00;1.00;;;;;;5033775;28;20548;-71
2021/09/19 06:08:06;;;;;;;58.40;2.87;;;10.00;1.00;;;;;;5034208;28;20583;-71
2021/09/19 06:10:33;;;;;;;61.57;3.20;;;10.10;1.00;;;;;;5033994;28;20476;-71
2021/09/19 06:13:00;;;;;;;58.57;2.90;;;10.10;1.00;;;;;;5033824;28;20571;-71
2021/09/19 06:15:28;;;;;;;58.33;2.80;;;10.10;1.00;;;;;;5033525;28;20542;-71
2021/09/19 06:17:57;;;;;;;58.33;2.93;;;10.20;1.00;;;;;;5033593;28;20909;-71
2021/09/19 06:20:23;;;;;;;58.80;2.70;;;10.20;1.00;;;;;;5033992;28;20452;-71
2021/09/19 06:22:50;;;;;;;58.23;2.67;;;10.30;1.00;;;;;;5033294;28;20535;-71
2021/09/19 06:25:17;;;;;;;58.53;2.90;;;10.40;1.00;;;;;;5033726;28;20527;-71
2021/09/19 06:27:44;;;;;;;59.77;3.40;;;10.40;1.00;;;;;;5033422;28;20887;-71
2021/09/19 06:30:12;;;;;;;59.20;3.23;;;10.50;1.00;;;;;;5033134;28;21012;-71
2021/09/19 06:32:39;;;;;;;58.50;2.80;;;10.50;1.00;;;;;;5029191;28;20503;-71
2021/09/19 06:35:08;;;;;;;58.43;2.90;;;10.60;1.00;;;;;;5033571;28;20451;-71
2021/09/19 06:37:36;;;;;;;58.73;2.90;;;10.60;1.00;;;;;;5033251;28;20477;-71
2021/09/19 06:40:03;;;;;;;58.27;2.87;;;10.70;1.00;;;;;;5033496;28;20547;-71
2021/09/19 06:42:30;;;;;;;58.47;3.00;;;10.70;1.00;;;;;;5033513;28;20441;-71
2021/09/19 06:44:57;;;;;;;58.87;3.00;;;10.80;1.00;;;;;;5033245;28;20542;-71
2021/09/19 06:47:24;;;;;;;58.27;2.80;;;10.80;1.00;;;;;;5033075;28;20465;-71
2021/09/19 06:49:51;;;;;;;58.23;2.80;;;10.90;1.00;;;;;;5033266;28;20456;-71
2021/09/19 06:52:19;;;;;;;59.57;3.00;;;11.00;1.00;;;;;;5033261;28;20468;-71
2021/09/19 06:54:46;;;;;;;59.10;3.37;;;11.10;1.00;;;;;;5033301;28;20445;-71
2021/09/19 06:57:12;;;;;;;59.20;4.00;;;11.20;1.00;;;;;;5032773;28;20551;-71
2021/09/19 06:59:39;;;;;;;58.40;2.87;;;11.20;1.00;;;;;;5032942;28;20536;-71
2021/09/19 07:02:06;;;;;;;59.10;3.43;;;11.30;1.00;;;;;;5029567;28;20463;-71
2021/09/19 07:04:33;;;;;;;58.87;3.40;;;11.40;1.00;;;;;;5013309;28;20468;-71
2021/09/19 07:07:00;;;;;;;58.57;3.00;;;11.50;1.00;;;;;;5012773;28;20536;-71
2021/09/19 07:09:28;;;;;;;58.80;3.00;;;11.50;1.00;;;;;;5013043;28;20950;-71
2021/09/19 07:11:55;;;;;;;58.67;3.10;;;11.60;1.00;;;;;;5013051;28;20946;-71
2021/09/19 07:14:22;;;;;;;58.33;2.87;;;11.70;1.00;;;;;;5012690;28;20580;-71
2021/09/19 07:16:49;;;;;;;58.40;2.80;;;11.80;1.00;;;;;;5013018;28;20476;-71
2021/09/19 07:19:16;;;;;;;58.13;2.70;;;11.80;1.00;;;;;;5013123;28;20541;-71
2021/09/19 07:21:43;;;;;;;58.57;3.00;;;11.90;1.00;;;;;;5012986;28;20452;-71
2021/09/19 07:24:11;;;;;;;58.80;3.07;;;12.00;1.00;;;;;;5012899;28;20544;-71
2021/09/19 07:26:39;;;;;;;58.33;2.80;;;12.10;1.00;;;;;;5012310;28;20469;-71
2021/09/19 07:29:06;;;;;;;58.10;2.90;;;12.20;1.00;;;;;;5012719;28;20556;-71
2021/09/19 07:31:34;;;;;;;58.47;2.93;;;12.30;1.00;;;;;;5012921;28;20870;-71
2021/09/19 07:34:02;;;;;;;59.03;3.00;;;12.40;1.00;;;;;;5017627;28;20532;-71
2021/09/19 07:36:32;;;;;;;59.00;3.00;;;12.50;1.00;;;;;;5032029;28;20499;-71
2021/09/19 07:39:01;;;;;;;58.97;3.20;;;12.60;1.00;;;;;;5032275;28;20472;-71
2021/09/19 07:41:28;;;;;;;58.63;3.30;;;12.70;1.00;;;;;;5032504;28;20449;-71
2021/09/19 07:43:57;;;;;;;58.70;3.30;;;12.70;1.00;;;;;;5032297;28;20813;-71
2021/09/19 07:46:24;;;;;;;58.30;3.17;;;12.80;1.00;;;;;;5026623;28;20998;-71
2021/09/19 07:48:51;;;;;;;58.80;3.37;;;12.90;1.00;;;;;;5012503;28;20478;-71
2021/09/19 07:51:20;;;;;;;58.37;2.80;;;13.00;1.00;;;;;;5012492;28;20804;-71
2021/09/19 07:53:47;;;;;;;58.67;3.80;;;13.10;1.00;;;;;;5012125;28;20926;-71
2021/09/19 07:56:14;;;;;;;58.40;2.80;;;13.20;1.00;;;;;;5012102;28;20456;-71
2021/09/19 07:58:41;;;;;;;58.17;2.80;;;13.30;1.00;;;;;;5012406;28;20458;-71
2021/09/19 08:01:09;;;;;;;58.40;2.83;;;13.40;1.00;;;;;;5012109;28;20508;-71
2021/09/19 08:03:36;;;;;;;58.47;3.20;;;13.50;1.00;;;;;;5011996;28;20456;-71
2021/09/19 08:06:03;;;;;;;58.17;2.80;;;13.60;1.00;;;;;;5024500;28;20481;-71
2021/09/19 08:08:30;;;;;;;58.27;2.83;;;13.70;1.00;;;;;;5032077;28;20496;-71
2021/09/19 08:10:57;;;;;;;58.33;2.70;;;13.80;1.00;;;;;;5031753;28;20535;-71
2021/09/19 08:13:23;;;;;;;58.57;3.00;;;13.90;1.00;;;;;;5031821;28;20935;-71
2021/09/19 08:15:50;;;;;;;58.30;2.60;;;14.00;1.00;;;;;;5031590;28;20476;-71
2021/09/19 08:18:19;;;;;;;58.17;2.60;;;14.10;1.00;;;;;;5032245;28;20889;-71
2021/09/19 08:20:46;;;;;;;58.27;2.73;;;14.20;1.00;;;;;;5031713;28;20456;-71
2021/09/19 08:23:13;;;;;;;59.00;2.80;;;14.30;1.00;;;;;;5031962;28;20449;-71
2021/09/19 08:25:40;;;;;;;58.27;3.10;;;14.40;1.00;;;;;;5031708;28;20535;-71
2021/09/19 08:28:06;;;;;;;58.37;3.07;;;14.50;1.00;;;;;;5031548;28;20564;-71
2021/09/19 08:30:33;;;;;;;58.13;2.90;;;14.60;1.00;;;;;;5031930;28;20481;-71
2021/09/19 08:33:00;;;;;;;59.00;3.00;;;14.70;1.00;;;;;;5031666;28;20485;-71
2021/09/19 08:35:28;;;;;;;58.07;2.80;;;14.80;1.00;;;;;;5027757;28;20957;-71
2021/09/19 08:37:55;;;;;;;58.60;3.13;;;14.90;1.00;;;;;;5023718;28;20474;-71
2021/09/19 08:40:22;;;;;;;58.90;3.30;;;15.00;1.00;;;;;;5031700;28;20456;-71
2021/09/19 08:42:54;;;;;;;58.37;2.90;;;15.20;1.00;;;;;;5031689;28;20495;-71
2021/09/19 08:45:21;;;;;;;59.37;3.53;;;15.30;1.00;;;;;;5033707;28;20536;-71
2021/09/19 08:47:49;;;;;;;58.17;2.80;;;15.40;1.00;;;;;;5035365;28;20465;-71
2021/09/19 08:50:16;;;;;;;58.07;2.77;;;15.50;1.00;;;;;;5035907;28;20445;-71
2021/09/19 08:52:45;;;;;;;59.00;2.90;;;15.60;1.00;;;;;;5035556;28;20842;-71
2021/09/19 08:55:12;;;;;;;58.40;3.47;;;15.70;1.00;;;;;;5035553;28;20861;-71
2021/09/19 08:57:40;;;;;;;58.20;2.90;;;15.80;1.00;;;;;;5035078;28;20553;-71
2021/09/19 09:00:09;;;;;;;58.70;3.00;;;15.90;1.00;;;;;;5035313;28;21037;-71
2021/09/19 09:02:50;;;;;;;58.40;2.60;;;16.10;1.00;;;;;;5035091;28;20456;-71
2021/09/19 09:05:22;;;;;;;57.97;2.80;;;16.20;1.00;;;;;;5035521;28;20451;-71
2021/09/19 09:07:53;;;;;;;58.50;3.50;;;16.40;1.00;;;;;;5031305;28;20651;-71
2021/09/19 09:10:31;;;;;;;58.03;2.60;;;16.50;1.00;;;;;;5035496;28;20450;-71
2021/09/19 09:13:02;;;;;;;58.27;2.63;;;16.60;1.00;;;;;;5035149;28;20478;-71
2021/09/19 09:15:34;;;;;;;58.07;2.50;;;16.70;1.00;;;;;;5034830;28;20962;-71
2021/09/19 09:18:04;;;;;;;58.07;2.50;;;16.90;1.00;;;;;;5034940;28;20478;-71
2021/09/19 09:20:46;;;;;;;58.50;2.43;;;17.10;1.00;;;;;;5034925;28;20951;-71
2021/09/19 09:23:26;;;;;;;58.20;2.57;;;17.30;1.00;;;;;;5034892;28;20494;-71
2021/09/19 09:26:09;;;;;;;58.30;2.70;;;17.50;1.00;;;;;;5034445;28;21028;-71
2021/09/19 09:28:41;;;;;;;58.77;2.80;;;17.70;1.00;;;;;;5034672;28;20462;-71
2021/09/19 09:31:08;;;;;;;57.97;2.60;;;17.90;1.00;;;;;;5034950;28;20448;-71
2021/09/19 09:33:35;;;;;;;58.20;2.80;;;18.10;1.00;;;;;;5034818;28;20659;-71
2021/09/19 09:36:07;;;;;;;58.10;2.90;;;18.30;1.00;;;;;;5034174;28;20482;-71
2021/09/19 09:38:38;;;;;;;58.13;2.80;;;18.70;1.00;;;;;;5030523;28;20453;-71
2021/09/19 09:41:06;;;;;;;57.87;2.40;;;19.00;1.00;;;;;;5034840;28;20891;-71
2021/09/19 09:43:33;;;;;;;58.50;2.70;;;19.40;1.00;;;;;;5034417;28;20455;-71
2021/09/19 09:46:13;;;;;;;57.53;2.13;;;19.70;1.00;;;;;;5034260;28;21029;-71
2021/09/19 09:48:39;;;;;;;58.07;2.47;;;20.30;1.00;;;;;;5034625;28;20474;-71
2021/09/19 09:51:22;;;;;;;58.27;2.70;;;21.00;1.00;;;;;;5034613;28;20965;-69
2021/09/19 09:54:00;;;;;;;59.40;4.63;;;21.80;1.00;;;;;;5034158;28;20481;-69
2021/09/19 09:56:27;;;;;;;58.17;2.30;;;22.70;1.00;;;;;;5033026;28;20452;-72
2021/09/19 09:58:55;;;;;;;57.93;2.47;;;23.40;1.00;;;;;;5034610;28;20549;-71
2021/09/19 10:01:22;;;;;;;58.00;2.40;;;24.10;1.00;;;;;;5034476;28;20507;-71
2021/09/19 10:03:50;;;;;;;57.90;2.23;;;24.60;1.00;;;;;;5034137;28;20477;-71
2021/09/19 10:06:17;;;;;;;57.87;2.20;;;25.10;1.00;;;;;;5033889;28;20454;-71
2021/09/19 10:08:44;;;;;;;57.77;2.20;;;25.80;1.00;;;;;;5033924;28;20545;-71
2021/09/19 10:11:12;;;;;;;57.87;2.43;;;26.40;1.00;;;;;;5029748;28;20541;-71
2021/09/19 10:13:44;;;;;;;58.40;2.50;;;26.90;1.00;;;;;;5034090;28;20917;-71
2021/09/19 10:16:15;;;;;;;57.80;2.20;;;27.20;1.00;;;;;;5033681;28;20921;-72
2021/09/19 10:18:46;;;;;;;57.87;2.60;;;27.40;1.00;;;;;;5033954;28;20541;-71
2021/09/19 10:21:16;;;;;;;57.77;2.37;;;27.80;1.00;;;;;;5033732;28;20893;-71
2021/09/19 10:23:44;;;;;;;57.47;2.30;;;28.20;1.00;;;;;;5033552;28;20445;-71
2021/09/19 10:26:13;;;;;;;58.80;2.40;;;28.40;1.00;;;;;;5032991;28;20455;-69
2021/09/19 10:28:41;;;;;;;57.47;2.10;;;28.70;1.00;;;;;;5033515;28;20462;-69
2021/09/19 10:31:32;;;;;;;58.70;2.93;;;29.20;1.00;;;;;;5033981;28;20502;-69
2021/09/19 10:34:02;;;;;;;57.80;2.40;;;29.50;1.00;;;;;;5033320;28;20479;-69
2021/09/19 10:36:45;;;;;;;57.43;2.33;;;29.70;1.00;;;;;;5033248;28;20551;-69
2021/09/19 10:39:31;;;;;;;57.77;2.60;;;30.00;1.00;;;;;;5033426;28;20479;-69
2021/09/19 10:42:10;;;;;;;58.90;2.90;;;30.50;1.00;;;;;;5030338;28;20456;-69
2021/09/19 10:44:59;;;;;;;57.50;2.30;;;30.80;1.00;;;;;;5033112;28;20448;-69
2021/09/19 10:47:35;;;;;;;57.37;2.30;;;31.20;1.00;;;;;;5032945;28;20548;-69
2021/09/19 10:50:22;;;;;;;57.30;2.00;;;31.70;1.00;;;;;;5033166;28;20451;-70
2021/09/19 10:52:51;;;;;;;57.30;2.30;;;32.10;1.00;;;;;;5032790;28;20480;-70
2021/09/19 10:55:30;;;;;;;57.47;2.60;;;32.40;1.00;;;;;;5032911;28;20477;-70
2021/09/19 10:58:02;;;;;;;57.37;2.10;;;32.60;1.00;;;;;;5032779;28;20501;-70
2021/09/19 11:00:30;;;;;;;57.40;2.00;;;33.00;1.00;;;;;;5033381;28;20453;-70
2021/09/19 11:03:05;;;;;;;57.90;2.77;;;33.00;1.00;;;;;;5032893;28;20444;-70
2021/09/19 11:05:33;;;;;;;57.37;2.00;;;32.40;1.00;;;;;;5032438;28;20447;-70
2021/09/19 11:08:38;;;;;;;57.27;2.20;;;31.20;1.00;;;;;;5032266;28;20650;-69
2021/09/19 11:11:26;;;;;;;57.57;2.30;;;29.40;1.00;;;;;;5032708;28;20445;-69
2021/09/19 11:14:01;;;;;;;57.77;2.50;;;27.80;1.00;;;;;;5029316;28;20485;-69
2021/09/19 11:16:40;;;;;;;57.57;2.23;;;27.90;1.00;;;;;;5031248;28;20453;-69
2021/09/19 11:19:13;;;;;;;57.33;2.00;;;28.70;1.00;;;;;;5032737;28;20454;-69
2021/09/19 11:21:45;;;;;;;57.43;2.23;;;29.70;1.00;;;;;;5032621;28;20498;-69
2021/09/19 11:24:14;;;;;;;57.67;2.23;;;30.80;1.00;;;;;;5032354;28;20453;-69
2021/09/19 11:26:42;;;;;;;57.37;2.30;;;31.60;1.00;;;;;;5032279;28;20507;-70
2021/09/19 11:29:13;;;;;;;57.40;2.50;;;32.20;1.00;;;;;;5032228;28;20548;-69
2021/09/19 11:31:42;;;;;;;57.43;2.20;;;32.40;1.00;;;;;;5032463;28;20451;-70
2021/09/19 11:34:11;;;;;;;57.37;2.70;;;32.30;1.00;;;;;;5032379;28;20485;-69
2021/09/19 11:36:42;;;;;;;58.43;2.47;;;32.20;1.00;;;;;;5031777;28;20471;-69
2021/09/19 11:39:10;;;;;;;57.40;2.50;;;32.50;1.00;;;;;;5032338;28;20449;-69
2021/09/19 11:41:37;;;;;;;57.20;2.10;;;32.90;1.00;;;;;;5032239;28;20499;-69
2021/09/19 11:44:04;;;;;;;57.17;2.03;;;33.30;1.00;;;;;;5022876;28;20460;-69
2021/09/19 11:46:34;;;;;;;57.07;2.00;;;33.70;1.00;;;;;;5012499;28;20549;-70
2021/09/19 11:49:01;;;;;;;57.60;2.40;;;34.00;1.00;;;;;;5012361;28;20496;-70
2021/09/19 11:51:28;;;;;;;56.97;2.13;;;34.10;1.00;;;;;;5012250;28;20529;-69
2021/09/19 11:53:57;;;;;;;56.87;2.00;;;34.50;1.00;;;;;;5012262;28;20496;-70
2021/09/19 11:56:25;;;;;;;56.73;2.00;;;35.00;1.00;;;;;;5011723;28;20485;-70
2021/09/19 11:58:53;;;;;;;56.93;1.90;;;35.40;1.00;;;;;;5012364;28;20823;-70
2021/09/19 12:01:24;;;;;;;57.47;2.70;;;35.60;1.00;;;;;;5012082;28;20536;-70
2021/09/19 12:03:53;;;;;;;57.07;2.27;;;36.00;1.00;;;;;;5011933;28;20528;-70
2021/09/19 12:06:21;;;;;;;57.07;2.30;;;36.20;1.00;;;;;;5011886;28;20446;-70
2021/09/19 12:08:49;;;;;;;57.17;2.00;;;36.40;1.00;;;;;;5012143;28;20456;-70
2021/09/19 12:11:16;;;;;;;57.33;2.40;;;35.60;1.00;;;;;;5012203;28;20537;-70
2021/09/19 12:13:49;;;;;;;57.30;2.60;;;34.00;1.00;;;;;;5011902;28;20537;-69
2021/09/19 12:16:19;;;;;;;57.90;2.40;;;32.50;1.00;;;;;;5026279;28;20532;-69
2021/09/19 12:18:49;;;;;;;57.37;2.30;;;31.20;1.00;;;;;;5031791;28;20463;-70
2021/09/19 12:21:18;;;;;;;58.10;2.90;;;30.20;1.00;;;;;;5031724;28;20449;-69
2021/09/19 12:23:49;;;;;;;57.90;2.57;;;29.40;1.00;;;;;;5031689;28;20459;-69
2021/09/19 12:26:19;;;;;;;58.07;2.77;;;28.80;1.00;;;;;;5031649;28;20551;-70
2021/09/19 12:28:47;;;;;;;57.67;2.27;;;28.90;1.00;;;;;;5031599;28;20878;-69
2021/09/19 12:31:33;;;;;;;57.63;2.30;;;29.90;1.00;;;;;;5031911;28;20533;-69
2021/09/19 12:33:59;;;;;;;57.30;2.33;;;31.00;1.00;;;;;;5031973;28;20499;-70
2021/09/19 12:36:28;;;;;;;57.43;2.53;;;31.50;1.00;;;;;;5031281;28;21008;-70
2021/09/19 12:38:56;;;;;;;58.63;2.47;;;30.90;1.00;;;;;;5031669;28;20453;-70
2021/09/19 12:41:23;;;;;;;58.97;2.40;;;30.10;1.00;;;;;;5031496;28;20941;-69
2021/09/19 12:43:49;;;;;;;57.77;2.30;;;29.40;1.00;;;;;;5031870;28;20562;-70
2021/09/19 12:46:17;;;;;;;57.80;2.73;;;29.00;1.00;;;;;;5028363;28;20515;-70
2021/09/19 12:48:45;;;;;;;57.47;2.47;;;29.80;1.00;;;;;;5032432;28;20541;-70
2021/09/19 12:51:16;;;;;;;57.47;1.97;;;30.90;1.00;;;;;;5031909;28;20537;-70
2021/09/19 12:53:48;;;;;;;57.40;2.20;;;32.00;1.00;;;;;;5031762;28;20484;-70
2021/09/19 12:56:16;;;;;;;57.50;2.40;;;33.00;1.00;;;;;;5032750;28;20483;-70